Time;durP1;ratioP1;P1;durP2;ratioP2;P2;SDS_P1;SDS_P2;PMS_P1;PMS_P2;Temp;Humidity;BMP_temperature;BMP_pressure;BME280_temperature;BME280_humidity;BME280_pressure;Samples;Min_cycle;Max_cycle;Signal;HPM_P1;HPM_P2
2023/09/02 00:01:02;;;;;;;0.53;0.40;;;19.90;99.90;;;20.27;67.08;101298.91;4810744;28;97625;-76
2023/09/02 00:03:28;;;;;;;1.23;0.67;;;20.00;99.90;;;20.33;66.83;101295.81;4813948;28;97975;-76
2023/09/02 00:05:53;;;;;;;0.83;0.40;;;20.10;99.90;;;20.38;66.49;101296.34;4809156;28;100225;-75
2023/09/02 00:08:20;;;;;;;0.77;0.53;;;20.20;99.90;;;20.43;66.34;101294.28;4810383;28;97165;-76
2023/09/02 00:10:46;;;;;;;0.50;0.50;;;20.30;99.90;;;20.49;66.00;101288.50;4810637;28;97690;-75
2023/09/02 00:13:11;;;;;;;1.43;0.63;;;20.40;99.90;;;20.56;65.84;101291.63;4807332;28;109604;-76
2023/09/02 00:15:37;;;;;;;0.70;0.60;;;20.50;99.90;;;20.60;65.77;101284.22;4822170;28;97953;-76
2023/09/02 00:18:03;;;;;;;1.83;0.50;;;20.50;99.90;;;20.65;65.63;101288.31;4807356;28;99123;-76
2023/09/02 00:20:29;;;;;;;0.60;0.50;;;20.60;99.90;;;20.68;65.45;101287.25;4824834;28;101255;-77
2023/09/02 00:22:55;;;;;;;0.50;0.40;;;20.70;99.90;;;20.71;65.37;101287.06;4802014;28;99402;-76
2023/09/02 00:25:22;;;;;;;0.40;0.40;;;20.70;99.90;;;20.76;65.13;101284.91;4809587;28;97305;-75
2023/09/02 00:27:48;;;;;;;0.70;0.43;;;20.70;99.90;;;20.79;65.07;101284.69;4810980;28;97291;-76
2023/09/02 00:30:14;;;;;;;0.80;0.40;;;20.80;99.90;;;20.82;64.89;101284.47;4796707;28;100060;-76
2023/09/02 00:32:40;;;;;;;1.83;0.43;;;20.80;99.90;;;20.83;64.87;101288.91;4809006;28;100456;-76
2023/09/02 00:35:06;;;;;;;0.87;0.63;;;20.80;99.90;;;20.84;64.78;101285.25;4800886;28;97418;-77
2023/09/02 00:37:32;;;;;;;1.13;0.53;;;20.80;99.90;;;20.88;64.64;101291.25;4811699;28;97267;-76
2023/09/02 00:39:58;;;;;;;0.73;0.50;;;20.90;99.90;;;20.90;64.63;101300.91;4812969;28;100138;-76
2023/09/02 00:42:26;;;;;;;0.70;0.40;;;20.90;99.90;;;20.91;64.62;101293.72;4809589;28;99216;-77
2023/09/02 00:44:52;;;;;;;0.67;0.47;;;20.90;99.90;;;20.91;64.34;101291.91;4812593;28;97143;-76
2023/09/02 00:47:19;;;;;;;0.70;0.50;;;20.90;99.90;;;20.90;64.64;101282.13;4811685;28;98968;-76
2023/09/02 00:49:45;;;;;;;0.63;0.50;;;20.90;99.90;;;20.92;64.58;101285.56;4822880;28;99808;-77
2023/09/02 00:52:10;;;;;;;0.60;0.60;;;20.90;99.90;;;20.94;64.55;101277.41;4810841;28;97553;-77
2023/09/02 00:54:37;;;;;;;1.07;0.30;;;20.90;99.90;;;20.95;64.65;101279.97;4815781;28;97192;-77
2023/09/02 00:57:03;;;;;;;0.73;0.57;;;21.00;99.90;;;20.96;64.04;101287.06;4813182;28;97745;-76
2023/09/02 00:59:29;;;;;;;0.60;0.40;;;21.00;99.90;;;20.96;64.46;101281.69;4808924;28;103218;-77
2023/09/02 01:01:57;;;;;;;0.53;0.47;;;20.90;99.90;;;20.96;64.49;101292.44;4809733;28;97420;-77
2023/09/02 01:04:23;;;;;;;0.60;0.60;;;21.00;99.90;;;20.98;64.44;101290.53;4794000;28;100776;-76
2023/09/02 01:06:50;;;;;;;1.17;0.50;;;21.00;99.90;;;20.98;64.38;101290.53;4812631;28;97385;-76
2023/09/02 01:09:16;;;;;;;0.93;0.80;;;21.00;99.90;;;20.98;63.78;101285.16;4804915;28;102094;-76
2023/09/02 01:11:42;;;;;;;0.73;0.50;;;20.90;99.90;;;20.96;63.88;101292.44;4804394;28;109580;-76
2023/09/02 01:14:08;;;;;;;0.33;0.33;;;20.90;99.90;;;20.93;63.93;101297.16;4797066;28;105929;-77
2023/09/02 01:16:34;;;;;;;0.40;0.37;;;20.80;99.90;;;20.86;64.42;101296.72;4804246;28;97240;-76
2023/09/02 01:19:00;;;;;;;0.43;0.43;;;20.70;99.90;;;20.84;64.72;101298.66;4805723;28;97581;-77
2023/09/02 01:21:59;;;;;;;0.40;0.40;;;20.70;99.90;;;20.82;64.53;101311.28;4805282;28;100897;-77
2023/09/02 01:25:01;;;;;;;0.93;0.60;;;20.70;99.90;;;20.74;64.54;101305.59;4819531;28;97361;-77
2023/09/02 01:28:07;;;;;;;0.43;0.30;;;20.50;99.90;;;20.69;65.13;101305.06;4806616;28;97605;-76
2023/09/02 01:30:35;;;;;;;0.37;0.30;;;20.50;99.90;;;20.66;65.35;101310.59;4801705;28;101743;-76
2023/09/02 01:33:05;;;;;;;0.90;0.50;;;20.50;99.90;;;20.67;65.40;101312.31;4806590;28;97511;-76
2023/09/02 01:35:34;;;;;;;1.13;0.60;;;20.50;99.90;;;20.68;65.22;101314.03;4803324;28;97136;-76
2023/09/02 01:38:03;;;;;;;0.73;0.40;;;20.50;99.90;;;20.70;65.12;101313.00;4792729;28;97578;-77
2023/09/02 01:40:32;;;;;;;0.60;0.40;;;20.50;99.90;;;20.70;65.13;101313.00;4810507;28;104823;-77
2023/09/02 01:42:59;;;;;;;3.60;1.03;;;20.60;99.90;;;20.67;63.96;101321.22;4807078;28;102040;-76
2023/09/02 01:45:34;;;;;;;0.63;0.60;;;20.50;99.90;;;20.66;65.31;101321.34;4838752;28;96832;-77
2023/09/02 01:48:02;;;;;;;0.43;0.37;;;20.50;99.90;;;20.65;65.42;101319.63;4821773;28;97548;-77
2023/09/02 01:50:32;;;;;;;0.50;0.50;;;20.50;99.90;;;20.66;65.32;101315.97;4839134;28;101283;-76
2023/09/02 01:52:59;;;;;;;0.80;0.50;;;20.50;99.90;;;20.68;65.53;101325.63;4819052;28;103448;-76
2023/09/02 01:55:25;;;;;;;0.30;0.30;;;20.60;99.90;;;20.69;65.12;101319.31;4824270;28;97122;-76
2023/09/02 01:57:54;;;;;;;0.60;0.40;;;20.60;99.90;;;20.69;64.89;101316.66;4822858;28;97308;-76
2023/09/02 02:00:20;;;;;;;0.40;0.40;;;20.60;99.90;;;20.67;64.79;101318.53;4818212;28;97877;-77
2023/09/02 02:02:49;;;;;;;1.10;0.90;;;20.50;99.90;;;20.66;64.55;101316.81;4822581;28;98240;-76
2023/09/02 02:05:18;;;;;;;2.40;1.23;;;20.50;99.90;;;20.58;63.37;101321.00;4821339;28;97381;-76
2023/09/02 02:07:53;;;;;;;2.77;1.37;;;20.40;99.90;;;20.52;64.23;101318.72;4825263;28;97766;-75
2023/09/02 02:10:24;;;;;;;0.63;0.40;;;20.20;99.90;;;20.39;65.04;101324.84;4797557;28;103874;-75
2023/09/02 02:12:50;;;;;;;0.47;0.40;;;20.00;99.90;;;20.38;66.17;101323.13;4823862;28;97850;-76
2023/09/02 02:15:16;;;;;;;0.40;0.40;;;20.00;99.90;;;20.38;66.31;101328.50;4815168;28;98948;-75
2023/09/02 02:17:42;;;;;;;0.63;0.40;;;20.00;99.90;;;20.39;66.38;101324.84;4823133;28;97623;-75
2023/09/02 02:20:09;;;;;;;0.50;0.40;;;20.10;99.90;;;20.39;66.32;101330.22;4823547;28;99033;-75
2023/09/02 02:22:35;;;;;;;0.70;0.40;;;20.10;99.90;;;20.40;66.30;101331.97;4827442;28;101377;-74
2023/09/02 02:25:01;;;;;;;0.43;0.30;;;20.10;99.90;;;20.41;66.37;101330.13;4819208;28;98501;-75
2023/09/02 02:27:27;;;;;;;1.17;0.60;;;20.20;99.90;;;20.41;65.52;101333.72;4826768;28;97436;-75
2023/09/02 02:29:53;;;;;;;0.57;0.47;;;20.20;99.90;;;20.43;65.96;101336.28;4819766;28;122496;-75
2023/09/02 02:32:19;;;;;;;0.57;0.40;;;20.20;99.90;;;20.40;65.41;101331.97;4818655;28;97553;-76
2023/09/02 02:34:45;;;;;;;0.40;0.30;;;20.10;99.90;;;20.38;66.45;101328.50;4825960;28;97234;-74
2023/09/02 02:37:11;;;;;;;0.90;0.60;;;20.10;99.90;;;20.41;66.20;101332.81;4823651;28;97727;-75
2023/09/02 02:39:36;;;;;;;0.70;0.50;;;20.20;99.90;;;20.47;66.07;101330.59;4823986;28;121792;-74
2023/09/02 02:42:02;;;;;;;0.50;0.40;;;20.30;99.90;;;20.52;65.87;101330.28;4827517;28;97433;-74
2023/09/02 02:44:28;;;;;;;0.73;0.40;;;20.40;99.90;;;20.56;65.69;101323.78;4826982;28;96966;-76
2023/09/02 02:46:54;;;;;;;0.40;0.40;;;20.50;99.90;;;20.61;65.62;101328.84;4822507;28;97678;-75
2023/09/02 02:49:19;;;;;;;1.17;0.40;;;20.50;99.90;;;20.66;65.40;101326.69;4817544;28;114836;-75
2023/09/02 02:51:45;;;;;;;0.30;0.20;;;20.60;99.90;;;20.70;65.05;101330.91;4834450;28;124583;-76
2023/09/02 02:54:11;;;;;;;0.60;0.40;;;20.60;99.90;;;20.72;65.02;101342.38;4807813;28;97623;-75
2023/09/02 02:56:37;;;;;;;1.30;0.60;;;20.70;99.90;;;20.72;65.22;101342.38;4821143;28;98435;-75
2023/09/02 02:59:03;;;;;;;0.30;0.30;;;20.70;99.90;;;20.72;65.06;101337.88;4822559;28;97239;-75
2023/09/02 03:01:31;;;;;;;0.70;0.53;;;20.70;99.90;;;20.75;65.12;101343.03;4817383;28;97832;-74
2023/09/02 03:03:56;;;;;;;0.80;0.57;;;20.70;99.90;;;20.77;65.00;101341.09;4822639;28;97279;-74
2023/09/02 03:06:22;;;;;;;0.40;0.40;;;20.70;99.90;;;20.79;64.87;101347.22;4822595;28;106677;-76
2023/09/02 03:08:48;;;;;;;0.53;0.47;;;20.70;99.90;;;20.81;64.78;101347.09;4841563;28;99834;-75
2023/09/02 03:11:14;;;;;;;0.53;0.37;;;20.80;99.90;;;20.80;64.83;101343.56;4824084;28;105091;-76
2023/09/02 03:13:39;;;;;;;0.80;0.70;;;20.70;99.90;;;20.80;64.60;101340.03;4823396;28;98931;-78
2023/09/02 03:16:06;;;;;;;1.10;0.60;;;20.70;99.90;;;20.80;64.78;101348.06;4827128;28;101237;-75
2023/09/02 03:18:32;;;;;;;0.30;0.30;;;20.70;99.90;;;20.79;64.69;101349.03;4823320;28;100513;-75
2023/09/02 03:21:03;;;;;;;0.63;0.40;;;20.70;99.90;;;20.80;64.33;101345.38;4807727;28;98755;-75
2023/09/02 03:23:29;;;;;;;0.50;0.30;;;20.70;99.90;;;20.78;64.99;101341.94;4823457;28;97170;-74
2023/09/02 03:25:55;;;;;;;0.57;0.30;;;20.70;99.90;;;20.78;64.80;101350.00;4820402;28;106892;-76
2023/09/02 03:28:21;;;;;;;0.20;0.20;;;20.70;99.90;;;20.79;64.63;101351.72;4824932;28;97673;-75
2023/09/02 03:30:46;;;;;;;0.57;0.30;;;20.70;99.90;;;20.79;64.51;101359.75;4821060;28;102939;-75
2023/09/02 03:33:14;;;;;;;1.00;0.50;;;20.70;99.90;;;20.77;64.51;101356.31;4822580;28;97462;-74
2023/09/02 03:35:41;;;;;;;1.40;1.07;;;20.60;99.90;;;20.74;64.81;101357.41;4839734;28;97317;-75
2023/09/02 03:38:06;;;;;;;0.53;0.47;;;20.60;99.90;;;20.72;65.07;101348.59;4844008;23;108650;-77
2023/09/02 03:40:33;;;;;;;2.57;1.50;;;20.60;99.90;;;20.63;63.86;101359.94;4874714;28;120328;-76
2023/09/02 03:42:59;;;;;;;1.50;1.40;;;20.40;99.90;;;20.55;63.80;101364.97;4891127;28;103768;-77
2023/09/02 03:45:25;;;;;;;1.13;0.40;;;20.30;99.90;;;20.43;64.88;101369.28;4871211;28;97909;-77
2023/09/02 03:47:51;;;;;;;0.80;0.70;;;20.10;99.90;;;20.39;66.04;101365.03;4867616;28;98583;-76
2023/09/02 03:50:25;;;;;;;0.43;0.43;;;20.00;99.90;;;20.40;66.18;101353.41;4853315;28;98972;-76
2023/09/02 03:52:50;;;;;;;1.80;1.53;;;20.10;99.90;;;20.40;66.02;101357.91;4859535;28;97463;-76
2023/09/02 03:55:16;;;;;;;2.17;1.57;;;20.10;99.90;;;20.35;65.42;101363.53;4866528;28;97290;-76
2023/09/02 03:57:42;;;;;;;4.83;1.60;;;20.10;99.90;;;20.24;65.42;101368.72;4854646;28;97411;-76
2023/09/02 04:00:09;;;;;;;3.17;1.67;;;19.90;99.90;;;20.11;65.58;101367.81;4864796;28;118292;-77
2023/09/02 04:02:35;;;;;;;1.27;0.80;;;19.70;99.90;;;20.12;67.04;101365.03;4864970;28;99078;-77
2023/09/02 04:05:03;;;;;;;0.77;0.70;;;19.70;99.90;;;20.11;66.79;101367.81;4853996;28;110798;-77
2023/09/02 04:07:29;;;;;;;2.13;1.23;;;19.70;99.90;;;20.11;67.33;101362.47;4870952;28;99921;-76
2023/09/02 04:09:56;;;;;;;0.50;0.50;;;19.70;99.90;;;20.15;67.51;101369.34;4861471;28;100815;-75
2023/09/02 04:12:22;;;;;;;0.63;0.50;;;19.80;99.90;;;20.16;67.24;101360.34;4867000;28;97230;-76
2023/09/02 04:14:48;;;;;;;1.73;1.23;;;19.80;99.90;;;20.17;67.07;101357.56;4868986;28;96601;-76
2023/09/02 04:17:16;;;;;;;1.30;0.93;;;19.80;99.90;;;20.19;67.04;101349.41;4866831;28;99046;-76
2023/09/02 04:19:42;;;;;;;0.80;0.70;;;19.90;99.90;;;20.19;67.16;101357.47;4861576;28;97537;-76
2023/09/02 04:22:08;;;;;;;0.70;0.60;;;19.90;99.90;;;20.16;66.92;101350.50;4855543;28;109683;-77
2023/09/02 04:24:33;;;;;;;0.63;0.60;;;19.80;99.90;;;20.17;67.11;101354.88;4876071;28;97786;-76
2023/09/02 04:27:00;;;;;;;1.10;0.40;;;19.80;99.90;;;20.19;66.97;101354.78;4863641;28;115792;-76
2023/09/02 04:29:26;;;;;;;0.53;0.50;;;19.90;99.90;;;20.20;67.12;101361.84;4864616;28;97620;-77
2023/09/02 04:31:52;;;;;;;1.13;0.50;;;19.90;99.90;;;20.21;67.10;101358.22;4861504;28;117125;-77
2023/09/02 04:34:19;;;;;;;1.03;0.90;;;19.90;99.90;;;20.23;66.55;101367.00;4854475;28;97823;-76
2023/09/02 04:36:45;;;;;;;0.87;0.50;;;20.00;99.90;;;20.26;66.59;101365.97;4864876;28;99320;-76
2023/09/02 04:39:10;;;;;;;0.40;0.40;;;20.00;99.90;;;20.27;66.88;101371.22;4865282;28;113721;-76
2023/09/02 04:41:37;;;;;;;0.40;0.40;;;20.00;99.90;;;20.32;66.57;101374.47;4866980;28;97499;-76
2023/09/02 04:44:03;;;;;;;0.80;0.53;;;20.10;99.90;;;20.33;66.02;101383.34;4851231;28;97281;-76
2023/09/02 04:46:29;;;;;;;0.87;0.50;;;20.10;99.90;;;20.33;65.81;101386.88;4872857;28;97670;-77
2023/09/02 04:48:55;;;;;;;0.40;0.23;;;20.10;99.90;;;20.34;66.39;101393.97;4866492;28;100094;-77
2023/09/02 04:51:21;;;;;;;0.40;0.40;;;20.10;99.90;;;20.35;66.41;101393.00;4861635;28;97516;-77
2023/09/02 04:53:47;;;;;;;0.53;0.30;;;20.10;99.90;;;20.36;65.69;101389.38;4867610;28;97497;-77
2023/09/02 04:56:12;;;;;;;0.77;0.50;;;20.10;99.90;;;20.34;66.33;101385.94;4868339;28;98938;-77
2023/09/02 04:58:39;;;;;;;0.43;0.33;;;20.10;99.90;;;20.36;66.41;101388.50;4871635;28;104012;-74
2023/09/02 05:01:12;;;;;;;0.33;0.27;;;20.10;99.90;;;20.37;66.48;101380.38;4859783;28;98921;-75
2023/09/02 05:03:38;;;;;;;0.30;0.30;;;20.10;99.90;;;20.41;66.37;101379.25;4847578;28;97297;-74
2023/09/02 05:06:07;;;;;;;0.50;0.50;;;20.20;99.90;;;20.45;66.01;101378.09;4868890;28;97094;-75
2023/09/02 05:08:34;;;;;;;0.40;0.37;;;20.30;99.90;;;20.52;65.99;101373.19;4859725;28;97194;-75
2023/09/02 05:11:00;;;;;;;0.60;0.40;;;20.40;99.90;;;20.56;65.70;101374.72;4880033;28;100283;-75
2023/09/02 05:13:26;;;;;;;0.20;0.20;;;20.50;99.90;;;20.59;65.57;101369.16;4849864;28;97174;-74
2023/09/02 05:15:52;;;;;;;0.40;0.20;;;20.50;99.90;;;20.62;65.43;101373.44;4851871;28;98675;-75
2023/09/02 05:18:18;;;;;;;0.77;0.40;;;20.50;99.90;;;20.61;65.09;101377.94;4857460;28;97417;-76
2023/09/02 05:20:44;;;;;;;0.47;0.40;;;20.50;99.90;;;20.61;65.26;101371.72;4858668;28;97261;-76
2023/09/02 05:23:12;;;;;;;0.80;0.57;;;20.50;99.90;;;20.58;65.09;101371.94;4872915;28;98870;-77
2023/09/02 05:25:39;;;;;;;0.77;0.50;;;20.40;99.90;;;20.58;65.61;101377.28;4868992;28;97888;-74
2023/09/02 05:28:05;;;;;;;0.67;0.40;;;20.40;99.90;;;20.58;65.43;101371.94;4864109;28;97935;-76
2023/09/02 05:30:35;;;;;;;0.50;0.47;;;20.40;99.90;;;20.59;65.49;101379.00;4865212;28;97376;-74
2023/09/02 05:33:01;;;;;;;0.93;0.60;;;20.40;99.90;;;20.55;64.10;101383.72;4852552;28;97797;-75
2023/09/02 05:35:27;;;;;;;0.70;0.53;;;20.40;99.90;;;20.53;64.88;101392.78;4871831;28;97623;-74
2023/09/02 05:37:52;;;;;;;0.93;0.80;;;20.30;99.90;;;20.47;65.49;101397.59;4874134;28;98204;-76
2023/09/02 05:40:18;;;;;;;0.60;0.40;;;20.20;99.90;;;20.43;65.39;101395.22;4865444;28;97371;-74
2023/09/02 05:42:44;;;;;;;2.30;1.60;;;20.10;99.90;;;20.33;64.87;101405.66;4871087;28;97426;-75
2023/09/02 05:45:10;;;;;;;1.53;1.10;;;20.00;99.90;;;20.25;65.49;101402.59;4865466;28;109321;-74
2023/09/02 05:47:35;;;;;;;0.60;0.60;;;19.80;99.90;;;20.18;66.65;101407.50;4871508;28;123872;-75
2023/09/02 05:50:02;;;;;;;1.37;0.70;;;19.70;99.90;;;20.15;66.88;101412.19;4876280;28;97369;-74
2023/09/02 05:52:28;;;;;;;0.40;0.37;;;19.70;99.90;;;20.16;67.20;101419.28;4873476;28;98931;-74
2023/09/02 05:54:53;;;;;;;0.40;0.40;;;19.70;99.90;;;20.20;67.11;101420.78;4882049;28;117284;-74
2023/09/02 05:57:19;;;;;;;0.60;0.50;;;19.80;99.90;;;20.23;67.23;101414.38;4844985;28;101749;-75
2023/09/02 05:59:45;;;;;;;2.30;1.30;;;20.00;99.90;;;20.21;66.60;101425.19;4847754;28;105760;-76
2023/09/02 06:02:10;;;;;;;1.07;0.63;;;19.90;99.90;;;20.16;66.59;101413.91;4866205;28;99922;-76
2023/09/02 06:04:36;;;;;;;0.73;0.50;;;19.80;99.90;;;20.13;67.00;101419.47;4869651;28;109438;-75
2023/09/02 06:07:02;;;;;;;1.37;1.00;;;19.80;99.90;;;20.06;67.13;101412.75;4863435;28;97598;-74
2023/09/02 06:09:29;;;;;;;1.20;0.90;;;19.70;99.90;;;20.00;67.38;101414.03;4867924;28;97204;-75
2023/09/02 06:11:55;;;;;;;1.80;1.43;;;19.60;99.90;;;19.97;67.86;101418.72;4866077;28;98571;-74
2023/09/02 06:14:21;;;;;;;1.10;0.50;;;19.60;99.90;;;20.04;68.17;101414.69;4863314;28;97589;-75
2023/09/02 06:16:47;;;;;;;0.83;0.47;;;19.70;99.90;;;20.08;67.78;101410.84;4844904;28;99798;-76
2023/09/02 06:19:12;;;;;;;0.43;0.43;;;19.80;99.90;;;20.14;67.44;101422.03;4859840;28;98828;-78
2023/09/02 06:21:38;;;;;;;2.23;1.40;;;19.90;99.90;;;20.17;67.24;101421.00;4846140;28;118988;-75
2023/09/02 06:24:05;;;;;;;0.60;0.40;;;20.00;99.90;;;20.21;67.28;101427.84;4853597;28;110778;-75
2023/09/02 06:26:31;;;;;;;0.60;0.40;;;20.00;99.90;;;20.24;67.36;101433.00;4857890;28;98472;-75
2023/09/02 06:28:57;;;;;;;0.67;0.47;;;20.00;99.90;;;20.28;66.70;101431.88;4840831;28;97688;-75
2023/09/02 06:31:23;;;;;;;0.47;0.40;;;20.10;99.90;;;20.35;66.50;101441.22;4861346;28;97369;-76
2023/09/02 06:33:49;;;;;;;1.50;1.27;;;20.20;99.90;;;20.37;66.85;101438.44;4846575;28;98961;-74
2023/09/02 06:36:21;;;;;;;0.57;0.40;;;20.20;99.90;;;20.39;66.42;101442.75;4866026;28;97535;-74
2023/09/02 06:38:47;;;;;;;0.50;0.47;;;20.20;99.90;;;20.41;66.69;101443.56;4866283;28;97808;-75
2023/09/02 06:41:15;;;;;;;0.60;0.33;;;20.20;99.90;;;20.41;66.59;101451.59;4857984;28;97127;-78
2023/09/02 06:43:41;;;;;;;0.60;0.40;;;20.20;99.90;;;20.42;66.78;101442.59;4852553;28;103926;-75
2023/09/02 06:46:25;;;;;;;0.50;0.30;;;20.20;99.90;;;20.45;66.25;101442.41;4866359;28;101335;-75
2023/09/02 06:48:51;;;;;;;0.50;0.30;;;20.30;99.90;;;20.48;66.43;101452.91;4866662;28;97413;-75
2023/09/02 06:51:17;;;;;;;0.30;0.30;;;20.30;99.90;;;20.51;65.82;101446.50;4865523;28;97348;-74
2023/09/02 06:53:44;;;;;;;1.13;0.40;;;20.40;99.90;;;20.56;65.78;101448.91;4862498;28;98807;-75
2023/09/02 06:56:12;;;;;;;0.30;0.30;;;20.50;99.90;;;20.60;65.59;101451.25;4876761;28;101221;-74
2023/09/02 06:58:42;;;;;;;2.70;1.37;;;20.50;99.90;;;20.60;67.20;101471.84;4865714;28;98043;-76
2023/09/02 07:01:21;;;;;;;1.90;1.20;;;20.50;99.90;;;20.53;67.54;101475.88;4862774;28;97311;-74
2023/09/02 07:03:48;;;;;;;2.63;1.60;;;20.40;99.90;;;20.43;68.56;101481.84;4859723;28;102037;-74
2023/09/02 07:06:15;;;;;;;0.60;0.50;;;20.20;99.90;;;20.39;68.15;101485.63;4861814;28;97413;-75
2023/09/02 07:08:43;;;;;;;0.20;0.20;;;20.20;99.90;;;20.39;66.63;101480.25;4863355;28;98598;-77
2023/09/02 07:11:10;;;;;;;1.87;1.30;;;20.20;99.90;;;20.40;68.73;101489.19;4859274;28;98017;-74
2023/09/02 07:13:37;;;;;;;1.03;0.50;;;20.20;99.90;;;20.37;67.66;101497.41;4871529;28;102364;-75
2023/09/02 07:16:06;;;;;;;2.43;1.50;;;20.10;99.90;;;20.36;69.09;101491.19;4867865;28;97569;-75
2023/09/02 07:18:32;;;;;;;2.30;1.10;;;20.10;99.90;;;20.33;69.89;101499.41;4859707;28;97674;-74
2023/09/02 07:21:00;;;;;;;0.57;0.40;;;20.10;99.90;;;20.36;67.27;101501.91;4848852;28;96878;-74
2023/09/02 07:23:27;;;;;;;2.47;1.43;;;20.10;99.90;;;20.38;68.52;101499.97;4873089;28;97537;-74
2023/09/02 07:25:53;;;;;;;0.50;0.50;;;20.20;99.90;;;20.38;66.91;101501.78;4867422;28;98791;-75
2023/09/02 07:28:19;;;;;;;1.10;0.90;;;20.20;99.90;;;20.43;66.68;101497.91;4861889;28;97634;-74
2023/09/02 07:30:45;;;;;;;0.40;0.40;;;20.30;99.90;;;20.48;66.22;101495.78;4859104;28;114930;-74
2023/09/02 07:33:10;;;;;;;1.80;1.13;;;20.40;99.90;;;20.56;66.59;101503.34;4848420;28;105060;-74
2023/09/02 07:35:38;;;;;;;1.03;0.83;;;20.50;99.90;;;20.61;66.61;101516.44;4853271;28;101780;-74
2023/09/02 07:38:05;;;;;;;0.13;0.13;;;20.60;99.90;;;20.63;65.62;101515.41;4882279;28;97677;-74
2023/09/02 07:40:31;;;;;;;0.27;0.20;;;20.60;99.90;;;20.68;65.59;101523.13;4845806;28;97564;-77
2023/09/02 07:43:00;;;;;;;2.17;1.47;;;20.60;99.90;;;20.72;66.33;101530.03;4865611;28;98350;-76
2023/09/02 07:45:26;;;;;;;1.50;1.17;;;20.70;99.90;;;20.68;68.60;101534.72;4867574;28;99191;-75
2023/09/02 07:47:54;;;;;;;1.10;0.70;;;20.60;99.90;;;20.67;68.01;101543.72;4862737;28;97359;-74
2023/09/02 07:50:20;;;;;;;0.97;0.70;;;20.60;99.90;;;20.61;69.00;101537.91;4860423;28;97635;-74
2023/09/02 07:52:47;;;;;;;1.17;0.67;;;20.50;99.90;;;20.55;67.36;101549.03;4859688;28;97546;-75
2023/09/02 07:55:13;;;;;;;0.57;0.53;;;20.40;99.90;;;20.58;67.71;101554.19;4862857;28;98125;-74
2023/09/02 07:57:39;;;;;;;0.50;0.50;;;20.50;99.90;;;20.61;65.79;101560.19;4848495;28;97338;-75
2023/09/02 08:00:07;;;;;;;0.70;0.50;;;20.50;99.90;;;20.61;68.24;101559.34;4865087;28;97717;-74
2023/09/02 08:02:33;;;;;;;3.13;1.10;;;20.50;99.90;;;20.53;70.95;101562.50;4855532;28;97570;-74
2023/09/02 08:04:59;;;;;;;0.53;0.53;;;20.40;99.90;;;20.52;67.51;101562.59;4859233;28;119319;-75
2023/09/02 08:07:24;;;;;;;0.70;0.63;;;20.40;99.90;;;20.46;70.49;101559.34;4856925;28;99964;-76
2023/09/02 08:09:51;;;;;;;1.63;1.20;;;20.30;99.90;;;20.50;68.75;101558.19;4859459;28;104042;-75
2023/09/02 08:12:17;;;;;;;0.73;0.40;;;20.40;99.90;;;20.53;66.62;101554.44;4860447;28;127470;-75
2023/09/02 08:14:43;;;;;;;1.47;0.47;;;20.40;99.90;;;20.55;66.23;101554.38;4863672;28;100490;-76
2023/09/02 08:17:08;;;;;;;0.40;0.37;;;20.50;99.90;;;20.60;65.83;101552.25;4858704;28;97578;-75
2023/09/02 08:19:34;;;;;;;0.77;0.53;;;20.60;99.90;;;20.67;65.86;101553.56;4857853;28;97520;-75
2023/09/02 08:22:00;;;;;;;1.67;1.10;;;20.70;99.90;;;20.73;67.29;101554.06;4864795;28;119297;-74
2023/09/02 08:24:26;;;;;;;0.47;0.43;;;20.70;99.90;;;20.74;65.59;101550.41;4845984;28;103504;-75
2023/09/02 08:26:52;;;;;;;0.20;0.20;;;20.80;99.90;;;20.77;65.24;101554.72;4865762;28;97441;-75
2023/09/02 08:29:17;;;;;;;5.07;2.67;;;20.80;99.90;;;20.84;69.92;101563.25;4871987;28;110526;-76
2023/09/02 08:31:43;;;;;;;0.87;0.60;;;20.80;99.90;;;20.86;67.32;101558.66;4864654;28;100362;-74
2023/09/02 08:34:09;;;;;;;2.70;1.73;;;20.80;99.90;;;20.87;67.77;101555.84;4856709;28;101289;-74
2023/09/02 08:36:35;;;;;;;0.40;0.30;;;20.80;99.90;;;20.86;66.06;101558.66;4851703;28;97231;-74
2023/09/02 08:39:00;;;;;;;1.80;1.47;;;20.80;99.90;;;20.86;70.20;101559.50;4857449;28;97378;-76
2023/09/02 08:41:31;;;;;;;0.43;0.40;;;20.80;99.90;;;20.85;65.13;101573.00;4858915;28;99530;-75
2023/09/02 08:44:02;;;;;;;2.27;1.70;;;20.80;99.90;;;20.90;69.22;101570.88;4844646;28;98232;-74
2023/09/02 08:46:31;;;;;;;2.50;1.60;;;20.80;99.90;;;20.91;71.04;101581.50;4861729;28;97142;-74
2023/09/02 08:48:58;;;;;;;1.70;1.03;;;20.80;99.90;;;20.87;67.19;101581.81;4850093;28;97119;-74
2023/09/02 08:51:26;;;;;;;1.40;1.17;;;20.80;99.90;;;20.85;71.84;101573.88;4854113;28;97684;-75
2023/09/02 08:53:55;;;;;;;0.57;0.40;;;20.80;99.90;;;20.85;65.76;101575.69;4852115;28;98317;-75
2023/09/02 08:56:25;;;;;;;0.83;0.40;;;20.80;99.90;;;20.83;65.39;101575.78;4846566;28;97345;-75
2023/09/02 08:58:53;;;;;;;0.90;0.57;;;20.80;99.90;;;20.83;65.28;101573.13;4822848;28;97174;-76
2023/09/02 09:01:22;;;;;;;1.13;1.00;;;20.80;99.90;;;20.87;65.13;101571.94;4843343;28;97068;-74
2023/09/02 09:03:52;;;;;;;0.63;0.50;;;20.90;99.90;;;20.91;64.95;101570.78;4837051;28;99123;-77
2023/09/02 09:06:24;;;;;;;1.00;0.50;;;20.90;99.90;;;20.95;64.86;101574.13;4840310;28;99131;-75
2023/09/02 09:08:52;;;;;;;2.73;0.70;;;21.00;99.90;;;20.98;64.96;101580.16;4856617;28;98299;-74
2023/09/02 09:11:22;;;;;;;0.50;0.50;;;21.00;99.90;;;20.98;64.78;101577.50;4837194;28;97312;-76
2023/09/02 09:13:49;;;;;;;0.73;0.50;;;21.00;99.90;;;21.01;64.47;101579.97;4840826;28;99239;-77
2023/09/02 09:16:31;;;;;;;0.67;0.30;;;21.10;99.90;;;21.06;64.52;101577.84;4840316;28;98276;-75
2023/09/02 09:18:57;;;;;;;0.60;0.60;;;21.10;99.90;;;21.09;66.34;101572.25;4831401;28;98304;-76
2023/09/02 09:21:25;;;;;;;1.63;0.97;;;21.10;99.90;;;21.15;70.13;101567.47;4834940;28;97478;-76
2023/09/02 09:23:51;;;;;;;0.83;0.63;;;21.10;99.90;;;21.15;70.35;101565.66;4836819;28;98232;-76
2023/09/02 09:26:18;;;;;;;0.60;0.30;;;21.20;99.90;;;21.14;65.87;101561.25;4836784;28;97360;-75
2023/09/02 09:28:56;;;;;;;0.57;0.50;;;21.10;99.90;;;21.12;64.39;101564.97;4825864;28;97503;-74
2023/09/02 09:31:24;;;;;;;0.50;0.30;;;21.10;99.90;;;21.09;64.39;101556.16;4837537;28;100880;-75
2023/09/02 09:33:53;;;;;;;1.87;0.70;;;21.20;99.90;;;21.16;68.00;101561.16;4837968;28;97948;-77
2023/09/02 09:36:23;;;;;;;1.00;0.90;;;21.20;99.90;;;21.09;64.66;101563.34;4843222;28;98072;-74
2023/09/02 09:38:57;;;;;;;2.40;0.73;;;21.20;99.90;;;21.10;69.13;101563.25;4854679;28;97319;-77
2023/09/02 09:41:25;;;;;;;0.60;0.50;;;21.20;99.90;;;21.14;68.58;101568.44;4838966;28;96842;-74
2023/09/02 09:44:16;;;;;;;1.43;0.50;;;21.20;99.90;;;21.19;68.79;101571.66;4844606;28;98792;-76
2023/09/02 09:46:51;;;;;;;0.50;0.40;;;21.20;99.90;;;21.18;64.91;101564.59;4827343;28;99036;-74
2023/09/02 09:49:27;;;;;;;0.70;0.60;;;21.20;99.90;;;21.23;69.58;101568.66;4843045;28;99129;-75
2023/09/02 09:52:02;;;;;;;0.50;0.50;;;21.30;99.90;;;21.19;65.12;101567.16;4837562;28;104947;-74
2023/09/02 09:54:45;;;;;;;0.50;0.50;;;21.30;99.90;;;21.16;64.67;101563.84;4840039;28;99657;-74
2023/09/02 09:57:30;;;;;;;0.50;0.50;;;21.20;99.90;;;21.13;64.34;101570.25;4838978;28;97577;-74
2023/09/02 09:59:57;;;;;;;1.90;0.80;;;21.20;99.90;;;21.14;64.38;101558.56;4840189;28;101048;-74
2023/09/02 10:02:24;;;;;;;0.83;0.70;;;21.20;99.90;;;21.14;64.08;101558.56;4840493;28;97503;-75
2023/09/02 10:04:54;;;;;;;2.10;0.80;;;21.20;99.90;;;21.09;64.36;101566.91;4841642;28;98141;-77
2023/09/02 10:07:26;;;;;;;0.40;0.40;;;21.20;99.90;;;21.11;64.44;101564.09;4844681;28;97338;-74
2023/09/02 10:09:58;;;;;;;0.60;0.50;;;21.20;99.90;;;21.13;66.66;101575.63;4842927;28;99893;-74
2023/09/02 10:12:24;;;;;;;1.10;0.40;;;21.20;99.90;;;21.20;65.16;101584.97;4848049;28;97376;-74